sensor_id;sensor_type;location;lat;lon;timestamp;P1;durP1;ratioP1;P2;durP2;ratioP2
980;SDS011;479;53.514;9.994;2024-03-22T00:01:57;10.17;;;8.43;;
980;SDS011;479;53.514;9.994;2024-03-22T00:04:23;8.03;;;6.83;;
980;SDS011;479;53.514;9.994;2024-03-22T00:06:50;13.53;;;7.07;;
980;SDS011;479;53.514;9.994;2024-03-22T00:09:16;14.43;;;8.47;;
980;SDS011;479;53.514;9.994;2024-03-22T00:11:43;9.20;;;6.90;;
980;SDS011;479;53.514;9.994;2024-03-22T00:14:10;9.97;;;7.40;;
980;SDS011;479;53.514;9.994;2024-03-22T00:16:38;11.87;;;8.37;;
980;SDS011;479;53.514;9.994;2024-03-22T00:19:06;9.13;;;7.70;;
980;SDS011;479;53.514;9.994;2024-03-22T00:21:32;13.10;;;8.37;;
980;SDS011;479;53.514;9.994;2024-03-22T00:23:58;9.80;;;7.53;;
980;SDS011;479;53.514;9.994;2024-03-22T00:26:26;13.07;;;8.07;;
980;SDS011;479;53.514;9.994;2024-03-22T00:28:53;9.33;;;7.00;;
980;SDS011;479;53.514;9.994;2024-03-22T00:31:20;17.43;;;11.53;;
980;SDS011;479;53.514;9.994;2024-03-22T00:33:46;9.23;;;7.47;;
980;SDS011;479;53.514;9.994;2024-03-22T00:36:14;12.33;;;8.67;;
980;SDS011;479;53.514;9.994;2024-03-22T00:38:40;10.77;;;7.60;;
980;SDS011;479;53.514;9.994;2024-03-22T00:41:07;12.10;;;8.20;;
980;SDS011;479;53.514;9.994;2024-03-22T00:43:33;12.27;;;9.63;;
980;SDS011;479;53.514;9.994;2024-03-22T00:46:00;9.43;;;6.80;;
980;SDS011;479;53.514;9.994;2024-03-22T00:48:27;12.67;;;8.40;;
980;SDS011;479;53.514;9.994;2024-03-22T00:50:54;14.10;;;8.97;;
980;SDS011;479;53.514;9.994;2024-03-22T00:53:22;13.20;;;7.33;;
980;SDS011;479;53.514;9.994;2024-03-22T00:55:49;12.37;;;6.10;;
980;SDS011;479;53.514;9.994;2024-03-22T00:58:17;11.03;;;7.90;;
980;SDS011;479;53.514;9.994;2024-03-22T01:00:45;15.40;;;9.30;;
980;SDS011;479;53.514;9.994;2024-03-22T01:03:11;9.77;;;6.60;;
980;SDS011;479;53.514;9.994;2024-03-22T01:05:38;9.87;;;7.63;;
980;SDS011;479;53.514;9.994;2024-03-22T01:08:06;10.73;;;7.47;;
980;SDS011;479;53.514;9.994;2024-03-22T01:10:34;12.07;;;8.97;;
980;SDS011;479;53.514;9.994;2024-03-22T01:13:00;14.80;;;10.17;;
980;SDS011;479;53.514;9.994;2024-03-22T01:15:27;11.67;;;7.63;;
980;SDS011;479;53.514;9.994;2024-03-22T01:17:53;13.40;;;9.80;;
980;SDS011;479;53.514;9.994;2024-03-22T01:20:20;11.87;;;8.87;;
980;SDS011;479;53.514;9.994;2024-03-22T01:22:46;18.63;;;10.20;;
980;SDS011;479;53.514;9.994;2024-03-22T01:25:13;14.57;;;9.67;;
980;SDS011;479;53.514;9.994;2024-03-22T01:27:41;14.27;;;9.20;;
980;SDS011;479;53.514;9.994;2024-03-22T01:30:08;10.33;;;7.90;;
980;SDS011;479;53.514;9.994;2024-03-22T01:32:34;10.67;;;8.43;;
980;SDS011;479;53.514;9.994;2024-03-22T01:35:01;12.90;;;9.57;;
980;SDS011;479;53.514;9.994;2024-03-22T01:37:27;11.80;;;9.27;;
980;SDS011;479;53.514;9.994;2024-03-22T01:39:54;14.20;;;9.37;;
980;SDS011;479;53.514;9.994;2024-03-22T01:42:20;14.17;;;9.90;;
980;SDS011;479;53.514;9.994;2024-03-22T01:44:49;14.20;;;10.03;;
980;SDS011;479;53.514;9.994;2024-03-22T01:47:15;14.77;;;9.10;;
980;SDS011;479;53.514;9.994;2024-03-22T01:49:42;14.53;;;10.07;;
980;SDS011;479;53.514;9.994;2024-03-22T01:52:08;13.93;;;9.77;;
980;SDS011;479;53.514;9.994;2024-03-22T01:54:35;12.57;;;7.87;;
980;SDS011;479;53.514;9.994;2024-03-22T01:57:01;15.13;;;10.37;;
980;SDS011;479;53.514;9.994;2024-03-22T01:59:29;14.10;;;9.03;;
980;SDS011;479;53.514;9.994;2024-03-22T02:01:57;11.77;;;7.83;;
980;SDS011;479;53.514;9.994;2024-03-22T02:04:24;13.70;;;8.63;;
980;SDS011;479;53.514;9.994;2024-03-22T02:06:50;16.50;;;10.80;;
980;SDS011;479;53.514;9.994;2024-03-22T02:09:17;14.60;;;9.37;;
980;SDS011;479;53.514;9.994;2024-03-22T02:11:43;17.20;;;10.70;;
980;SDS011;479;53.514;9.994;2024-03-22T02:14:10;14.73;;;10.50;;
980;SDS011;479;53.514;9.994;2024-03-22T02:16:35;17.03;;;10.60;;
980;SDS011;479;53.514;9.994;2024-03-22T02:19:04;13.10;;;10.10;;
980;SDS011;479;53.514;9.994;2024-03-22T02:21:29;15.43;;;11.73;;
980;SDS011;479;53.514;9.994;2024-03-22T02:23:58;17.80;;;11.23;;
980;SDS011;479;53.514;9.994;2024-03-22T02:26:24;12.97;;;8.30;;
980;SDS011;479;53.514;9.994;2024-03-22T02:28:50;15.63;;;10.10;;
980;SDS011;479;53.514;9.994;2024-03-22T02:31:16;18.43;;;11.50;;
980;SDS011;479;53.514;9.994;2024-03-22T02:33:45;14.17;;;10.47;;
980;SDS011;479;53.514;9.994;2024-03-22T02:36:11;19.10;;;11.07;;
980;SDS011;479;53.514;9.994;2024-03-22T02:38:38;17.27;;;11.80;;
980;SDS011;479;53.514;9.994;2024-03-22T02:41:05;19.60;;;11.40;;
980;SDS011;479;53.514;9.994;2024-03-22T02:43:32;19.07;;;13.30;;
980;SDS011;479;53.514;9.994;2024-03-22T02:45:58;19.20;;;12.70;;
980;SDS011;479;53.514;9.994;2024-03-22T02:48:24;20.17;;;12.20;;
980;SDS011;479;53.514;9.994;2024-03-22T02:50:54;22.50;;;13.80;;
980;SDS011;479;53.514;9.994;2024-03-22T02:53:22;19.63;;;13.23;;
980;SDS011;479;53.514;9.994;2024-03-22T02:55:47;21.00;;;13.27;;
980;SDS011;479;53.514;9.994;2024-03-22T02:58:16;22.80;;;12.60;;
980;SDS011;479;53.514;9.994;2024-03-22T03:00:42;20.80;;;13.27;;
980;SDS011;479;53.514;9.994;2024-03-22T03:03:09;20.13;;;13.97;;
980;SDS011;479;53.514;9.994;2024-03-22T03:05:35;25.53;;;13.57;;
980;SDS011;479;53.514;9.994;2024-03-22T03:08:02;22.10;;;14.33;;
980;SDS011;479;53.514;9.994;2024-03-22T03:10:29;21.97;;;14.43;;
980;SDS011;479;53.514;9.994;2024-03-22T03:12:56;23.47;;;13.30;;
980;SDS011;479;53.514;9.994;2024-03-22T03:15:23;18.93;;;11.93;;
980;SDS011;479;53.514;9.994;2024-03-22T03:17:50;24.10;;;14.90;;
980;SDS011;479;53.514;9.994;2024-03-22T03:20:17;24.33;;;14.33;;
980;SDS011;479;53.514;9.994;2024-03-22T03:22:44;20.60;;;12.70;;
980;SDS011;479;53.514;9.994;2024-03-22T03:25:10;21.07;;;14.13;;
980;SDS011;479;53.514;9.994;2024-03-22T03:27:37;24.77;;;14.47;;
980;SDS011;479;53.514;9.994;2024-03-22T03:30:03;22.27;;;14.87;;
980;SDS011;479;53.514;9.994;2024-03-22T03:32:33;21.57;;;15.37;;
980;SDS011;479;53.514;9.994;2024-03-22T03:34:59;26.40;;;15.90;;
980;SDS011;479;53.514;9.994;2024-03-22T03:37:26;23.00;;;13.73;;
980;SDS011;479;53.514;9.994;2024-03-22T03:39:52;23.70;;;14.10;;
980;SDS011;479;53.514;9.994;2024-03-22T03:42:19;23.03;;;15.40;;
980;SDS011;479;53.514;9.994;2024-03-22T03:44:45;22.93;;;16.30;;
980;SDS011;479;53.514;9.994;2024-03-22T03:47:12;24.97;;;16.37;;
980;SDS011;479;53.514;9.994;2024-03-22T03:49:39;22.50;;;15.17;;
980;SDS011;479;53.514;9.994;2024-03-22T03:52:06;28.90;;;16.83;;
980;SDS011;479;53.514;9.994;2024-03-22T03:54:31;26.60;;;15.20;;
980;SDS011;479;53.514;9.994;2024-03-22T03:56:58;25.07;;;16.07;;
980;SDS011;479;53.514;9.994;2024-03-22T03:59:24;27.60;;;15.90;;
980;SDS011;479;53.514;9.994;2024-03-22T04:01:51;19.70;;;14.53;;
980;SDS011;479;53.514;9.994;2024-03-22T04:04:17;27.97;;;14.10;;
980;SDS011;479;53.514;9.994;2024-03-22T04:06:45;25.70;;;16.80;;
980;SDS011;479;53.514;9.994;2024-03-22T04:09:12;23.03;;;15.90;;
980;SDS011;479;53.514;9.994;2024-03-22T04:11:38;29.20;;;17.97;;
980;SDS011;479;53.514;9.994;2024-03-22T04:14:05;29.70;;;17.47;;
980;SDS011;479;53.514;9.994;2024-03-22T04:16:32;25.30;;;16.00;;
980;SDS011;479;53.514;9.994;2024-03-22T04:18:57;26.50;;;16.17;;
980;SDS011;479;53.514;9.994;2024-03-22T04:21:25;27.83;;;17.00;;
980;SDS011;479;53.514;9.994;2024-03-22T04:23:52;23.40;;;15.43;;
980;SDS011;479;53.514;9.994;2024-03-22T04:26:19;27.87;;;16.93;;
980;SDS011;479;53.514;9.994;2024-03-22T04:28:46;22.37;;;15.60;;
980;SDS011;479;53.514;9.994;2024-03-22T04:31:12;23.60;;;15.13;;
980;SDS011;479;53.514;9.994;2024-03-22T04:33:39;28.07;;;16.30;;
980;SDS011;479;53.514;9.994;2024-03-22T04:36:06;29.17;;;18.00;;
980;SDS011;479;53.514;9.994;2024-03-22T04:38:34;25.13;;;17.07;;
980;SDS011;479;53.514;9.994;2024-03-22T04:41:03;27.53;;;16.33;;
980;SDS011;479;53.514;9.994;2024-03-22T04:43:30;25.90;;;16.60;;
980;SDS011;479;53.514;9.994;2024-03-22T04:45:57;26.17;;;17.00;;
980;SDS011;479;53.514;9.994;2024-03-22T04:48:24;28.90;;;16.07;;
980;SDS011;479;53.514;9.994;2024-03-22T04:50:50;28.40;;;17.00;;
980;SDS011;479;53.514;9.994;2024-03-22T04:53:19;28.27;;;16.17;;
980;SDS011;479;53.514;9.994;2024-03-22T04:55:46;25.17;;;16.50;;
980;SDS011;479;53.514;9.994;2024-03-22T04:58:15;27.53;;;15.90;;
980;SDS011;479;53.514;9.994;2024-03-22T05:00:42;29.07;;;17.77;;
980;SDS011;479;53.514;9.994;2024-03-22T05:03:09;28.37;;;17.77;;
980;SDS011;479;53.514;9.994;2024-03-22T05:05:35;26.47;;;17.20;;
980;SDS011;479;53.514;9.994;2024-03-22T05:08:03;25.77;;;18.10;;
980;SDS011;479;53.514;9.994;2024-03-22T05:10:29;27.80;;;19.00;;
980;SDS011;479;53.514;9.994;2024-03-22T05:12:57;28.30;;;18.90;;
980;SDS011;479;53.514;9.994;2024-03-22T05:15:24;28.50;;;18.97;;
980;SDS011;479;53.514;9.994;2024-03-22T05:17:52;26.77;;;17.50;;
980;SDS011;479;53.514;9.994;2024-03-22T05:20:18;28.37;;;16.63;;
980;SDS011;479;53.514;9.994;2024-03-22T05:22:45;31.93;;;17.47;;
980;SDS011;479;53.514;9.994;2024-03-22T05:25:11;31.77;;;16.80;;
980;SDS011;479;53.514;9.994;2024-03-22T05:27:40;27.77;;;17.70;;
980;SDS011;479;53.514;9.994;2024-03-22T05:30:07;29.20;;;16.80;;
980;SDS011;479;53.514;9.994;2024-03-22T05:32:36;30.87;;;18.90;;
980;SDS011;479;53.514;9.994;2024-03-22T05:35:02;30.30;;;18.17;;
980;SDS011;479;53.514;9.994;2024-03-22T05:37:29;31.13;;;19.27;;
980;SDS011;479;53.514;9.994;2024-03-22T05:39:55;30.13;;;20.00;;
980;SDS011;479;53.514;9.994;2024-03-22T05:42:22;29.50;;;17.57;;
980;SDS011;479;53.514;9.994;2024-03-22T05:44:48;26.07;;;17.10;;
980;SDS011;479;53.514;9.994;2024-03-22T05:47:15;32.80;;;20.00;;
980;SDS011;479;53.514;9.994;2024-03-22T05:49:42;33.03;;;19.80;;
980;SDS011;479;53.514;9.994;2024-03-22T05:52:09;30.60;;;19.33;;
980;SDS011;479;53.514;9.994;2024-03-22T05:54:35;27.27;;;17.67;;
980;SDS011;479;53.514;9.994;2024-03-22T05:57:02;34.87;;;21.40;;
980;SDS011;479;53.514;9.994;2024-03-22T05:59:28;39.60;;;16.93;;
980;SDS011;479;53.514;9.994;2024-03-22T06:01:54;26.40;;;15.40;;
980;SDS011;479;53.514;9.994;2024-03-22T06:04:20;29.60;;;18.53;;
980;SDS011;479;53.514;9.994;2024-03-22T06:06:50;28.70;;;17.70;;
980;SDS011;479;53.514;9.994;2024-03-22T06:09:15;33.13;;;18.97;;
980;SDS011;479;53.514;9.994;2024-03-22T06:11:49;31.63;;;18.97;;
980;SDS011;479;53.514;9.994;2024-03-22T06:14:15;39.13;;;23.03;;
980;SDS011;479;53.514;9.994;2024-03-22T06:16:42;32.17;;;19.10;;
980;SDS011;479;53.514;9.994;2024-03-22T06:19:07;33.70;;;19.57;;
980;SDS011;479;53.514;9.994;2024-03-22T06:21:34;33.80;;;22.75;;
980;SDS011;479;53.514;9.994;2024-03-22T06:24:02;35.33;;;20.47;;
980;SDS011;479;53.514;9.994;2024-03-22T06:26:29;31.80;;;19.53;;
980;SDS011;479;53.514;9.994;2024-03-22T06:28:55;30.13;;;17.40;;
980;SDS011;479;53.514;9.994;2024-03-22T06:31:22;32.50;;;19.67;;
980;SDS011;479;53.514;9.994;2024-03-22T06:33:48;31.70;;;19.00;;
980;SDS011;479;53.514;9.994;2024-03-22T06:36:15;32.10;;;18.63;;
980;SDS011;479;53.514;9.994;2024-03-22T06:38:41;33.60;;;20.80;;
980;SDS011;479;53.514;9.994;2024-03-22T06:41:09;31.67;;;20.40;;
980;SDS011;479;53.514;9.994;2024-03-22T06:43:35;31.43;;;19.93;;
980;SDS011;479;53.514;9.994;2024-03-22T06:46:02;32.80;;;20.40;;
980;SDS011;479;53.514;9.994;2024-03-22T06:48:28;36.53;;;19.90;;
980;SDS011;479;53.514;9.994;2024-03-22T06:50:55;41.00;;;21.20;;
980;SDS011;479;53.514;9.994;2024-03-22T06:53:21;39.10;;;20.07;;
980;SDS011;479;53.514;9.994;2024-03-22T06:55:48;30.87;;;21.60;;
980;SDS011;479;53.514;9.994;2024-03-22T06:58:15;37.67;;;17.70;;
980;SDS011;479;53.514;9.994;2024-03-22T07:00:42;29.27;;;18.30;;
980;SDS011;479;53.514;9.994;2024-03-22T07:03:08;37.10;;;19.00;;
980;SDS011;479;53.514;9.994;2024-03-22T07:05:35;32.63;;;20.17;;
980;SDS011;479;53.514;9.994;2024-03-22T07:08:01;37.30;;;21.87;;
980;SDS011;479;53.514;9.994;2024-03-22T07:10:27;37.87;;;21.53;;
980;SDS011;479;53.514;9.994;2024-03-22T07:12:54;29.87;;;19.37;;
980;SDS011;479;53.514;9.994;2024-03-22T07:15:22;31.50;;;20.70;;
980;SDS011;479;53.514;9.994;2024-03-22T07:17:49;39.13;;;24.83;;
980;SDS011;479;53.514;9.994;2024-03-22T07:20:16;30.47;;;20.43;;
980;SDS011;479;53.514;9.994;2024-03-22T07:22:42;36.23;;;21.37;;
980;SDS011;479;53.514;9.994;2024-03-22T07:25:09;39.40;;;22.80;;
980;SDS011;479;53.514;9.994;2024-03-22T07:27:36;47.40;;;22.37;;
980;SDS011;479;53.514;9.994;2024-03-22T07:30:03;37.17;;;23.00;;
980;SDS011;479;53.514;9.994;2024-03-22T07:32:32;33.07;;;21.57;;
980;SDS011;479;53.514;9.994;2024-03-22T07:34:59;37.93;;;23.90;;
980;SDS011;479;53.514;9.994;2024-03-22T07:37:25;37.40;;;24.00;;
980;SDS011;479;53.514;9.994;2024-03-22T07:39:52;34.20;;;21.20;;
980;SDS011;479;53.514;9.994;2024-03-22T07:42:18;42.33;;;20.87;;
980;SDS011;479;53.514;9.994;2024-03-22T07:44:46;27.50;;;19.40;;
980;SDS011;479;53.514;9.994;2024-03-22T07:47:12;31.67;;;20.47;;
980;SDS011;479;53.514;9.994;2024-03-22T07:49:40;33.00;;;20.77;;
980;SDS011;479;53.514;9.994;2024-03-22T07:52:06;35.10;;;20.50;;
980;SDS011;479;53.514;9.994;2024-03-22T07:54:33;33.83;;;21.03;;
980;SDS011;479;53.514;9.994;2024-03-22T07:56:59;38.93;;;20.50;;
980;SDS011;479;53.514;9.994;2024-03-22T07:59:26;39.37;;;22.47;;
980;SDS011;479;53.514;9.994;2024-03-22T08:01:52;32.87;;;18.87;;
980;SDS011;479;53.514;9.994;2024-03-22T08:04:18;37.10;;;20.53;;
980;SDS011;479;53.514;9.994;2024-03-22T08:06:46;37.60;;;21.30;;
980;SDS011;479;53.514;9.994;2024-03-22T08:09:13;38.20;;;22.47;;
980;SDS011;479;53.514;9.994;2024-03-22T08:11:39;33.57;;;20.10;;
980;SDS011;479;53.514;9.994;2024-03-22T08:14:06;36.73;;;19.77;;
980;SDS011;479;53.514;9.994;2024-03-22T08:16:32;34.33;;;21.30;;
980;SDS011;479;53.514;9.994;2024-03-22T08:18:59;37.47;;;23.50;;
980;SDS011;479;53.514;9.994;2024-03-22T08:21:24;33.50;;;22.00;;
980;SDS011;479;53.514;9.994;2024-03-22T08:23:53;32.97;;;20.57;;
980;SDS011;479;53.514;9.994;2024-03-22T08:26:19;36.77;;;21.70;;
980;SDS011;479;53.514;9.994;2024-03-22T08:28:46;34.10;;;19.23;;
980;SDS011;479;53.514;9.994;2024-03-22T08:31:12;40.83;;;22.30;;
980;SDS011;479;53.514;9.994;2024-03-22T08:33:39;33.17;;;18.60;;
980;SDS011;479;53.514;9.994;2024-03-22T08:36:05;29.07;;;19.63;;
980;SDS011;479;53.514;9.994;2024-03-22T08:38:32;33.57;;;20.07;;
980;SDS011;479;53.514;9.994;2024-03-22T08:41:00;31.03;;;19.03;;
980;SDS011;479;53.514;9.994;2024-03-22T08:43:26;39.70;;;23.23;;
980;SDS011;479;53.514;9.994;2024-03-22T08:45:54;33.07;;;19.67;;
980;SDS011;479;53.514;9.994;2024-03-22T08:48:21;38.73;;;22.07;;
980;SDS011;479;53.514;9.994;2024-03-22T08:50:47;31.90;;;17.57;;
980;SDS011;479;53.514;9.994;2024-03-22T08:53:14;35.37;;;20.07;;
980;SDS011;479;53.514;9.994;2024-03-22T08:55:44;39.37;;;22.37;;
980;SDS011;479;53.514;9.994;2024-03-22T08:58:14;29.90;;;18.77;;
980;SDS011;479;53.514;9.994;2024-03-22T09:00:40;32.50;;;21.97;;
980;SDS011;479;53.514;9.994;2024-03-22T09:03:07;33.70;;;20.10;;
980;SDS011;479;53.514;9.994;2024-03-22T09:05:33;38.47;;;22.30;;
980;SDS011;479;53.514;9.994;2024-03-22T09:08:00;42.90;;;23.27;;
980;SDS011;479;53.514;9.994;2024-03-22T09:10:28;34.83;;;20.00;;
980;SDS011;479;53.514;9.994;2024-03-22T09:12:55;34.10;;;18.47;;
980;SDS011;479;53.514;9.994;2024-03-22T09:15:22;37.47;;;19.80;;
980;SDS011;479;53.514;9.994;2024-03-22T09:17:51;36.67;;;19.63;;
980;SDS011;479;53.514;9.994;2024-03-22T09:20:17;37.00;;;20.33;;
980;SDS011;479;53.514;9.994;2024-03-22T09:22:44;40.17;;;23.03;;
980;SDS011;479;53.514;9.994;2024-03-22T09:25:10;33.13;;;20.30;;
980;SDS011;479;53.514;9.994;2024-03-22T09:27:37;37.47;;;20.60;;
980;SDS011;479;53.514;9.994;2024-03-22T09:30:03;32.13;;;18.20;;
980;SDS011;479;53.514;9.994;2024-03-22T09:32:32;28.07;;;16.70;;
980;SDS011;479;53.514;9.994;2024-03-22T09:34:58;33.30;;;19.47;;
980;SDS011;479;53.514;9.994;2024-03-22T09:37:25;26.97;;;19.20;;
980;SDS011;479;53.514;9.994;2024-03-22T09:39:51;42.57;;;21.90;;
980;SDS011;479;53.514;9.994;2024-03-22T09:42:18;30.47;;;18.97;;
980;SDS011;479;53.514;9.994;2024-03-22T09:44:48;34.07;;;20.97;;
980;SDS011;479;53.514;9.994;2024-03-22T09:47:16;32.27;;;20.10;;
980;SDS011;479;53.514;9.994;2024-03-22T09:49:44;34.33;;;20.90;;
980;SDS011;479;53.514;9.994;2024-03-22T09:52:13;38.37;;;20.90;;
980;SDS011;479;53.514;9.994;2024-03-22T09:54:41;38.13;;;21.40;;
980;SDS011;479;53.514;9.994;2024-03-22T09:57:09;32.43;;;18.00;;
980;SDS011;479;53.514;9.994;2024-03-22T09:59:39;39.27;;;19.40;;
980;SDS011;479;53.514;9.994;2024-03-22T10:02:07;26.97;;;17.90;;
980;SDS011;479;53.514;9.994;2024-03-22T10:04:36;31.40;;;19.10;;
980;SDS011;479;53.514;9.994;2024-03-22T10:07:04;33.47;;;19.90;;
980;SDS011;479;53.514;9.994;2024-03-22T10:09:30;25.80;;;16.53;;
980;SDS011;479;53.514;9.994;2024-03-22T10:11:58;30.83;;;17.20;;
980;SDS011;479;53.514;9.994;2024-03-22T10:14:24;25.27;;;16.57;;
980;SDS011;479;53.514;9.994;2024-03-22T10:16:52;30.10;;;17.00;;
980;SDS011;479;53.514;9.994;2024-03-22T10:19:19;27.23;;;17.57;;
980;SDS011;479;53.514;9.994;2024-03-22T10:21:46;22.57;;;15.07;;
980;SDS011;479;53.514;9.994;2024-03-22T10:24:14;24.50;;;15.17;;
980;SDS011;479;53.514;9.994;2024-03-22T10:26:41;24.93;;;17.00;;
980;SDS011;479;53.514;9.994;2024-03-22T10:29:07;17.90;;;12.00;;
980;SDS011;479;53.514;9.994;2024-03-22T10:31:35;27.90;;;17.77;;
980;SDS011;479;53.514;9.994;2024-03-22T10:34:02;24.77;;;15.47;;
980;SDS011;479;53.514;9.994;2024-03-22T10:36:30;16.70;;;11.77;;
980;SDS011;479;53.514;9.994;2024-03-22T10:38:58;21.23;;;13.90;;
980;SDS011;479;53.514;9.994;2024-03-22T10:41:28;22.37;;;12.23;;
980;SDS011;479;53.514;9.994;2024-03-22T10:43:54;24.70;;;14.27;;
980;SDS011;479;53.514;9.994;2024-03-22T10:46:21;18.83;;;13.60;;
980;SDS011;479;53.514;9.994;2024-03-22T10:48:54;18.73;;;13.37;;
980;SDS011;479;53.514;9.994;2024-03-22T10:51:22;23.80;;;14.80;;
980;SDS011;479;53.514;9.994;2024-03-22T10:53:51;22.43;;;14.07;;
980;SDS011;479;53.514;9.994;2024-03-22T10:56:21;20.20;;;11.50;;
980;SDS011;479;53.514;9.994;2024-03-22T10:58:50;19.10;;;11.90;;
980;SDS011;479;53.514;9.994;2024-03-22T11:01:24;19.40;;;12.27;;
980;SDS011;479;53.514;9.994;2024-03-22T11:03:51;17.37;;;12.23;;
980;SDS011;479;53.514;9.994;2024-03-22T11:06:28;18.83;;;10.80;;
980;SDS011;479;53.514;9.994;2024-03-22T11:08:58;17.97;;;10.90;;
980;SDS011;479;53.514;9.994;2024-03-22T11:11:25;19.10;;;11.23;;
980;SDS011;479;53.514;9.994;2024-03-22T11:13:55;18.50;;;12.50;;
980;SDS011;479;53.514;9.994;2024-03-22T11:16:22;18.00;;;10.23;;
980;SDS011;479;53.514;9.994;2024-03-22T11:18:48;16.73;;;11.10;;
980;SDS011;479;53.514;9.994;2024-03-22T11:21:15;16.30;;;10.83;;
980;SDS011;479;53.514;9.994;2024-03-22T11:23:44;15.30;;;10.30;;
980;SDS011;479;53.514;9.994;2024-03-22T11:26:12;12.27;;;8.23;;
980;SDS011;479;53.514;9.994;2024-03-22T11:28:38;14.83;;;10.00;;
980;SDS011;479;53.514;9.994;2024-03-22T11:31:06;11.53;;;8.67;;
980;SDS011;479;53.514;9.994;2024-03-22T11:33:32;14.60;;;9.30;;
980;SDS011;479;53.514;9.994;2024-03-22T11:35:59;15.93;;;10.47;;
980;SDS011;479;53.514;9.994;2024-03-22T11:38:25;13.47;;;10.20;;
980;SDS011;479;53.514;9.994;2024-03-22T11:40:53;13.80;;;8.47;;
980;SDS011;479;53.514;9.994;2024-03-22T11:43:21;13.10;;;8.60;;
980;SDS011;479;53.514;9.994;2024-03-22T11:45:48;14.93;;;8.70;;
980;SDS011;479;53.514;9.994;2024-03-22T11:48:16;13.57;;;9.20;;
980;SDS011;479;53.514;9.994;2024-03-22T11:50:43;16.33;;;12.30;;
980;SDS011;479;53.514;9.994;2024-03-22T11:53:10;16.23;;;10.77;;
980;SDS011;479;53.514;9.994;2024-03-22T11:55:37;11.07;;;7.50;;
980;SDS011;479;53.514;9.994;2024-03-22T11:58:03;14.87;;;9.00;;
980;SDS011;479;53.514;9.994;2024-03-22T12:00:30;15.23;;;9.53;;
980;SDS011;479;53.514;9.994;2024-03-22T12:02:56;14.73;;;9.33;;
980;SDS011;479;53.514;9.994;2024-03-22T12:05:25;10.50;;;7.37;;
980;SDS011;479;53.514;9.994;2024-03-22T12:07:52;17.17;;;9.50;;
980;SDS011;479;53.514;9.994;2024-03-22T12:10:19;11.40;;;7.80;;
980;SDS011;479;53.514;9.994;2024-03-22T12:12:45;11.83;;;9.07;;
980;SDS011;479;53.514;9.994;2024-03-22T12:15:11;10.20;;;8.47;;
980;SDS011;479;53.514;9.994;2024-03-22T12:17:37;14.20;;;8.50;;
980;SDS011;479;53.514;9.994;2024-03-22T12:20:06;11.07;;;7.37;;
980;SDS011;479;53.514;9.994;2024-03-22T12:22:35;13.80;;;8.40;;
980;SDS011;479;53.514;9.994;2024-03-22T12:25:02;7.67;;;6.00;;
980;SDS011;479;53.514;9.994;2024-03-22T12:27:29;11.13;;;8.40;;
980;SDS011;479;53.514;9.994;2024-03-22T12:29:56;16.10;;;13.63;;
980;SDS011;479;53.514;9.994;2024-03-22T12:32:22;11.53;;;8.30;;
980;SDS011;479;53.514;9.994;2024-03-22T12:34:49;8.37;;;6.63;;
980;SDS011;479;53.514;9.994;2024-03-22T12:37:15;8.80;;;6.03;;
980;SDS011;479;53.514;9.994;2024-03-22T12:39:43;8.50;;;6.30;;
980;SDS011;479;53.514;9.994;2024-03-22T12:42:09;10.13;;;6.10;;
980;SDS011;479;53.514;9.994;2024-03-22T12:44:36;19.73;;;13.40;;
980;SDS011;479;53.514;9.994;2024-03-22T12:47:02;8.73;;;6.47;;
980;SDS011;479;53.514;9.994;2024-03-22T12:49:29;9.30;;;6.63;;
980;SDS011;479;53.514;9.994;2024-03-22T12:51:56;8.10;;;6.77;;
980;SDS011;479;53.514;9.994;2024-03-22T12:54:23;7.17;;;5.17;;
980;SDS011;479;53.514;9.994;2024-03-22T12:56:51;8.37;;;6.00;;
980;SDS011;479;53.514;9.994;2024-03-22T12:59:19;8.60;;;7.17;;
980;SDS011;479;53.514;9.994;2024-03-22T13:01:45;13.43;;;7.10;;
980;SDS011;479;53.514;9.994;2024-03-22T13:04:13;11.10;;;7.90;;
980;SDS011;479;53.514;9.994;2024-03-22T13:06:39;9.77;;;6.60;;
980;SDS011;479;53.514;9.994;2024-03-22T13:09:05;13.13;;;8.70;;
980;SDS011;479;53.514;9.994;2024-03-22T13:11:34;6.70;;;5.90;;
980;SDS011;479;53.514;9.994;2024-03-22T13:14:03;7.90;;;5.67;;
980;SDS011;479;53.514;9.994;2024-03-22T13:16:29;9.10;;;5.77;;
980;SDS011;479;53.514;9.994;2024-03-22T13:18:56;9.40;;;6.63;;
980;SDS011;479;53.514;9.994;2024-03-22T13:21:22;7.43;;;6.70;;
980;SDS011;479;53.514;9.994;2024-03-22T13:23:49;7.50;;;4.90;;
980;SDS011;479;53.514;9.994;2024-03-22T13:26:15;5.33;;;4.60;;
980;SDS011;479;53.514;9.994;2024-03-22T13:28:42;6.90;;;5.60;;
980;SDS011;479;53.514;9.994;2024-03-22T13:31:10;5.73;;;4.00;;
980;SDS011;479;53.514;9.994;2024-03-22T13:33:37;5.37;;;4.30;;
980;SDS011;479;53.514;9.994;2024-03-22T13:36:03;9.47;;;7.53;;
980;SDS011;479;53.514;9.994;2024-03-22T13:38:30;11.13;;;9.83;;
980;SDS011;479;53.514;9.994;2024-03-22T13:40:56;7.57;;;6.17;;
980;SDS011;479;53.514;9.994;2024-03-22T13:43:25;5.83;;;5.20;;
980;SDS011;479;53.514;9.994;2024-03-22T13:45:52;3.83;;;3.50;;
980;SDS011;479;53.514;9.994;2024-03-22T13:48:22;4.40;;;4.00;;
980;SDS011;479;53.514;9.994;2024-03-22T13:50:49;5.83;;;5.23;;
980;SDS011;479;53.514;9.994;2024-03-22T13:53:17;3.17;;;2.90;;
980;SDS011;479;53.514;9.994;2024-03-22T13:55:42;4.27;;;3.87;;
980;SDS011;479;53.514;9.994;2024-03-22T13:58:09;4.40;;;4.00;;
980;SDS011;479;53.514;9.994;2024-03-22T14:00:36;5.43;;;4.60;;
980;SDS011;479;53.514;9.994;2024-03-22T14:03:03;4.07;;;3.67;;
980;SDS011;479;53.514;9.994;2024-03-22T14:05:31;3.87;;;3.43;;
980;SDS011;479;53.514;9.994;2024-03-22T14:07:58;4.73;;;4.27;;
980;SDS011;479;53.514;9.994;2024-03-22T14:10:25;6.67;;;5.80;;
980;SDS011;479;53.514;9.994;2024-03-22T14:12:53;4.17;;;3.90;;
980;SDS011;479;53.514;9.994;2024-03-22T14:15:19;3.97;;;3.30;;
980;SDS011;479;53.514;9.994;2024-03-22T14:17:46;6.23;;;5.27;;
980;SDS011;479;53.514;9.994;2024-03-22T14:20:13;4.90;;;3.63;;
980;SDS011;479;53.514;9.994;2024-03-22T14:22:41;5.13;;;4.53;;
980;SDS011;479;53.514;9.994;2024-03-22T14:25:08;5.90;;;5.20;;
980;SDS011;479;53.514;9.994;2024-03-22T14:27:35;3.40;;;3.10;;
980;SDS011;479;53.514;9.994;2024-03-22T14:30:02;4.63;;;4.23;;
980;SDS011;479;53.514;9.994;2024-03-22T14:32:31;4.43;;;3.27;;
980;SDS011;479;53.514;9.994;2024-03-22T14:34:57;6.27;;;5.47;;
980;SDS011;479;53.514;9.994;2024-03-22T14:37:24;3.77;;;3.20;;
980;SDS011;479;53.514;9.994;2024-03-22T14:39:51;5.43;;;4.10;;
980;SDS011;479;53.514;9.994;2024-03-22T14:42:18;5.63;;;5.00;;
980;SDS011;479;53.514;9.994;2024-03-22T14:44:44;3.37;;;3.07;;
980;SDS011;479;53.514;9.994;2024-03-22T14:47:11;5.43;;;4.20;;
980;SDS011;479;53.514;9.994;2024-03-22T14:49:37;6.93;;;3.40;;
980;SDS011;479;53.514;9.994;2024-03-22T14:52:05;4.10;;;2.53;;
980;SDS011;479;53.514;9.994;2024-03-22T14:54:31;5.37;;;4.57;;
980;SDS011;479;53.514;9.994;2024-03-22T14:56:59;4.23;;;3.13;;
980;SDS011;479;53.514;9.994;2024-03-22T14:59:27;7.77;;;4.27;;
980;SDS011;479;53.514;9.994;2024-03-22T15:01:54;4.67;;;3.90;;
980;SDS011;479;53.514;9.994;2024-03-22T15:04:20;8.27;;;5.50;;
980;SDS011;479;53.514;9.994;2024-03-22T15:06:47;3.73;;;2.57;;
980;SDS011;479;53.514;9.994;2024-03-22T15:09:15;5.60;;;3.33;;
980;SDS011;479;53.514;9.994;2024-03-22T15:11:43;4.10;;;2.40;;
980;SDS011;479;53.514;9.994;2024-03-22T15:14:11;4.10;;;2.53;;
980;SDS011;479;53.514;9.994;2024-03-22T15:16:38;6.67;;;6.00;;
980;SDS011;479;53.514;9.994;2024-03-22T15:19:04;5.57;;;2.70;;
980;SDS011;479;53.514;9.994;2024-03-22T15:21:31;6.87;;;3.30;;
980;SDS011;479;53.514;9.994;2024-03-22T15:23:57;5.30;;;3.23;;